createdAt,value
2018-09-08T00:00:11.737Z,14.93
2018-09-08T00:02:41.252Z,16.37
2018-09-08T00:05:16.366Z,14.67
2018-09-08T00:07:45.746Z,12.83
2018-09-08T00:10:14.451Z,13.40
2018-09-08T00:12:43.115Z,15.70
2018-09-08T00:15:17.031Z,15.63
2018-09-08T00:17:51.004Z,14.40
2018-09-08T00:20:25.071Z,19.60
2018-09-08T00:22:58.746Z,19.60
2018-09-08T00:25:32.467Z,14.53
2018-09-08T00:28:05.447Z,13.20
2018-09-08T00:30:35.031Z,14.53
2018-09-08T00:33:03.736Z,12.37
2018-09-08T00:35:33.856Z,13.53
2018-09-08T00:38:02.736Z,14.77
2018-09-08T00:40:31.452Z,15.20
2018-09-08T00:43:00.131Z,13.60
2018-09-08T00:45:28.780Z,16.90
2018-09-08T00:47:57.383Z,14.70
2018-09-08T00:50:25.972Z,13.03
2018-09-08T00:52:55.609Z,13.77
2018-09-08T00:55:24.354Z,14.30
2018-09-08T00:57:53.007Z,13.67
2018-09-08T01:00:21.728Z,16.70
2018-09-08T01:02:50.385Z,13.77
2018-09-08T01:05:21.756Z,13.43
2018-09-08T01:07:50.376Z,12.10
2018-09-08T01:10:19.143Z,13.17
2018-09-08T01:12:47.784Z,14.20
2018-09-08T01:15:16.311Z,15.47
2018-09-08T01:17:45.180Z,15.63
2018-09-08T01:20:14.387Z,13.10
2018-09-08T01:22:43.071Z,13.07
2018-09-08T01:25:14.749Z,16.33
2018-09-08T01:27:44.133Z,16.47
2018-09-08T01:30:12.701Z,13.67
2018-09-08T01:32:41.408Z,13.67
2018-09-08T01:35:10.427Z,17.80
2018-09-08T01:37:39.277Z,13.30
2018-09-08T01:40:08.952Z,14.90
2018-09-08T01:42:37.752Z,13.03
2018-09-08T01:45:06.815Z,12.17
2018-09-08T01:47:35.681Z,13.67
2018-09-08T01:50:04.530Z,13.30
2018-09-08T01:52:33.321Z,14.90
2018-09-08T01:55:02.089Z,14.87
2018-09-08T01:57:30.903Z,11.97
2018-09-08T01:59:59.553Z,16.40
2018-09-08T02:02:29.079Z,11.30
2018-09-08T02:04:58.551Z,14.50
2018-09-08T02:07:27.259Z,14.87
2018-09-08T02:09:56.294Z,12.13
2018-09-08T02:12:25.471Z,10.43
2018-09-08T02:14:54.133Z,12.00
2018-09-08T02:17:22.800Z,11.73
2018-09-08T02:19:52.014Z,10.90
2018-09-08T02:22:20.592Z,11.97
2018-09-08T02:24:49.304Z,10.83
2018-09-08T02:27:17.964Z,12.13
2018-09-08T02:29:46.644Z,9.60
2018-09-08T02:32:15.474Z,10.83
2018-09-08T02:34:44.196Z,16.20
2018-09-08T02:37:13.218Z,16.50
2018-09-08T02:39:42.393Z,12.30
2018-09-08T02:42:11.092Z,10.33
2018-09-08T02:44:39.764Z,9.67
2018-09-08T02:47:08.577Z,14.37
2018-09-08T02:49:48.209Z,11.00
2018-09-08T02:52:17.256Z,11.40
2018-09-08T02:54:44.544Z,10.63
2018-09-08T02:57:12.702Z,11.30
2018-09-08T02:59:40.181Z,10.93
2018-09-08T03:02:07.524Z,10.70
2018-09-08T03:04:34.816Z,16.63
2018-09-08T03:07:06.229Z,10.63
2018-09-08T03:09:33.798Z,9.57
2018-09-08T03:12:01.079Z,8.60
2018-09-08T03:14:29.266Z,10.23
2018-09-08T03:16:56.559Z,9.70
2018-09-08T03:19:23.875Z,9.80
2018-09-08T03:21:51.151Z,9.60
2018-09-08T03:24:18.423Z,9.80
2018-09-08T03:26:46.347Z,10.80
2018-09-08T03:29:13.632Z,8.67
2018-09-08T03:31:40.922Z,14.47
2018-09-08T03:34:08.231Z,15.57
2018-09-08T03:36:36.292Z,8.77
2018-09-08T03:39:04.087Z,8.10
2018-09-08T03:41:31.407Z,12.87
2018-09-08T03:43:58.699Z,8.97
2018-09-08T03:46:26.259Z,9.57
2018-09-08T03:48:53.604Z,13.93
2018-09-08T03:51:21.776Z,9.47
2018-09-08T03:53:49.062Z,10.10
2018-09-08T03:56:16.414Z,12.00
2018-09-08T03:58:43.743Z,12.03
2018-09-08T04:01:11.030Z,15.17
2018-09-08T04:03:39.633Z,10.20
2018-09-08T04:06:08.413Z,8.70
2018-09-08T04:08:37.129Z,10.80
2018-09-08T04:11:06.138Z,7.90
2018-09-08T04:13:34.980Z,11.20
2018-09-08T04:16:03.892Z,10.30
2018-09-08T04:18:32.604Z,8.60
2018-09-08T04:21:01.257Z,11.30
2018-09-08T04:23:29.944Z,11.80
2018-09-08T04:25:58.968Z,10.93
2018-09-08T04:28:27.607Z,11.63
2018-09-08T04:30:56.155Z,9.67
2018-09-08T04:33:24.679Z,10.00
2018-09-08T04:35:53.588Z,8.00
2018-09-08T04:38:22.476Z,12.30
2018-09-08T04:40:51.272Z,10.53
2018-09-08T04:43:20.034Z,8.47
2018-09-08T04:45:48.735Z,10.37
2018-09-08T04:48:17.612Z,9.30
2018-09-08T04:50:46.195Z,12.30
2018-09-08T04:53:15.158Z,8.67
2018-09-08T04:55:43.859Z,8.73
2018-09-08T04:58:12.565Z,7.83
2018-09-08T05:00:42.217Z,10.37
2018-09-08T05:03:11.354Z,9.20
2018-09-08T05:05:40.304Z,11.80
2018-09-08T05:08:08.857Z,11.67
2018-09-08T05:10:37.693Z,12.67
2018-09-08T05:13:06.517Z,13.33
2018-09-08T05:15:35.796Z,12.60
2018-09-08T05:18:04.468Z,13.10
2018-09-08T05:20:33.327Z,12.40
2018-09-08T05:23:02.838Z,18.20
2018-09-08T05:25:32.589Z,13.53
2018-09-08T05:28:01.261Z,15.33
2018-09-08T05:30:29.943Z,18.60
2018-09-08T05:32:58.663Z,16.73
2018-09-08T05:35:27.736Z,13.63
2018-09-08T05:37:56.440Z,18.43
2018-09-08T05:40:25.253Z,18.93
2018-09-08T05:42:54.776Z,23.73
2018-09-08T05:45:23.477Z,18.70
2018-09-08T05:47:52.185Z,17.90
2018-09-08T05:50:20.867Z,20.73
2018-09-08T05:52:49.546Z,15.73
2018-09-08T05:55:19.060Z,19.00
2018-09-08T05:57:47.783Z,16.97
2018-09-08T06:00:16.871Z,19.30
2018-09-08T06:02:45.551Z,21.90
2018-09-08T06:05:14.828Z,25.90
2018-09-08T06:07:43.518Z,24.20
2018-09-08T06:10:12.976Z,20.50
2018-09-08T06:12:41.499Z,21.53
2018-09-08T06:15:10.780Z,22.93
2018-09-08T06:17:39.680Z,21.17
2018-09-08T06:20:08.376Z,19.90
2018-09-08T06:22:37.799Z,16.93
2018-09-08T06:25:06.580Z,19.60
2018-09-08T06:27:35.100Z,15.13
2018-09-08T06:30:03.697Z,18.23
2018-09-08T06:32:32.617Z,22.93
2018-09-08T06:35:01.308Z,16.50
2018-09-08T06:37:30.224Z,20.00
2018-09-08T06:39:58.795Z,20.20
2018-09-08T06:42:27.736Z,19.50
2018-09-08T06:44:56.462Z,19.67
2018-09-08T06:47:25.199Z,23.13
2018-09-08T06:49:53.786Z,20.33
2018-09-08T06:52:22.535Z,20.57
2018-09-08T06:54:51.081Z,23.43
2018-09-08T06:57:20.477Z,17.50
2018-09-08T06:59:49.057Z,14.87
2018-09-08T07:02:18.146Z,21.87
2018-09-08T07:04:47.080Z,17.07
2018-09-08T07:07:15.816Z,22.23
2018-09-08T07:09:44.951Z,18.30
2018-09-08T07:12:13.836Z,17.70
2018-09-08T07:14:43.104Z,19.17
2018-09-08T07:21:17.096Z,16.90
2018-09-08T07:23:45.883Z,16.70
2018-09-08T07:26:14.520Z,14.67
2018-09-08T07:28:43.402Z,18.17
2018-09-08T07:31:14.203Z,14.63
2018-09-08T07:33:42.834Z,16.07
2018-09-08T07:36:11.744Z,16.10
2018-09-08T07:38:40.290Z,16.70
2018-09-08T07:41:09.671Z,17.17
2018-09-08T07:43:39.176Z,25.70
2018-09-08T07:46:08.126Z,15.00
2018-09-08T07:48:36.789Z,16.47
2018-09-08T07:51:06.124Z,14.13
2018-09-08T07:53:34.797Z,15.10
2018-09-08T07:56:04.777Z,16.27
2018-09-08T07:58:40.078Z,13.37
2018-09-08T08:01:08.807Z,17.50
2018-09-08T08:03:37.502Z,13.33
2018-09-08T08:06:06.519Z,12.93
2018-09-08T08:08:35.289Z,12.67
2018-09-08T08:11:04.007Z,16.33
2018-09-08T08:13:32.620Z,12.17
2018-09-08T08:16:01.532Z,10.97
2018-09-08T08:18:30.265Z,11.60
2018-09-08T08:20:58.864Z,10.17
2018-09-08T08:23:27.397Z,12.07
2018-09-08T08:25:56.071Z,8.50
2018-09-08T08:28:25.339Z,13.93
2018-09-08T08:30:54.027Z,13.50
2018-09-08T08:33:22.730Z,11.93
2018-09-08T08:35:51.574Z,12.57
2018-09-08T08:38:20.332Z,12.40
2018-09-08T08:40:48.972Z,8.93
2018-09-08T08:43:17.524Z,12.67
2018-09-08T08:45:46.160Z,12.37
2018-09-08T08:48:15.071Z,9.20
2018-09-08T08:50:54.736Z,11.53
2018-09-08T08:53:34.429Z,8.63
2018-09-08T08:56:03.000Z,9.63
2018-09-08T08:58:32.407Z,10.57
2018-09-08T09:01:01.032Z,9.80
2018-09-08T09:03:29.741Z,8.00
2018-09-08T09:05:58.571Z,8.53
2018-09-08T09:08:27.505Z,9.17
2018-09-08T09:10:55.969Z,10.50
2018-09-08T09:13:24.670Z,9.67
2018-09-08T09:15:53.501Z,9.63
2018-09-08T09:18:33.230Z,11.40
2018-09-08T09:21:12.788Z,9.57
2018-09-08T09:24:32.544Z,11.37
2018-09-08T09:27:00.758Z,10.43
2018-09-08T09:29:29.416Z,10.03
2018-09-08T09:31:58.144Z,16.63
2018-09-08T09:34:27.815Z,9.50
2018-09-08T09:36:56.490Z,14.00
2018-09-08T09:39:25.199Z,7.80
2018-09-08T09:41:53.767Z,11.53
2018-09-08T09:44:22.961Z,10.67
2018-09-08T09:46:51.484Z,10.33
2018-09-08T09:49:20.236Z,11.40
2018-09-08T09:51:50.231Z,10.10
2018-09-08T09:54:18.936Z,7.57
2018-09-08T09:56:48.008Z,9.33
2018-09-08T09:59:16.949Z,9.80
2018-09-08T10:01:51.384Z,8.30
2018-09-08T10:04:20.227Z,9.63
2018-09-08T10:06:48.904Z,7.63
2018-09-08T10:09:22.276Z,10.33
2018-09-08T10:11:50.991Z,7.07
2018-09-08T10:14:19.911Z,9.43
2018-09-08T10:16:48.539Z,7.10
2018-09-08T10:19:18.093Z,8.03
2018-09-08T10:21:47.531Z,10.73
2018-09-08T10:24:16.194Z,8.50
2018-09-08T10:26:46.167Z,17.40
2018-09-08T10:29:14.816Z,9.67
2018-09-08T10:31:43.940Z,6.83
2018-09-08T10:34:12.701Z,6.60
2018-09-08T10:36:41.669Z,6.60
2018-09-08T10:39:10.699Z,6.60
2018-09-08T10:41:39.545Z,6.40
2018-09-08T10:44:09.040Z,9.53
2018-09-08T10:46:37.669Z,5.87
2018-09-08T10:49:06.392Z,6.47
2018-09-08T10:51:55.814Z,9.57
2018-09-08T10:54:25.424Z,9.83
2018-09-08T10:56:54.130Z,4.80
2018-09-08T10:59:22.827Z,4.17
2018-09-08T11:01:51.841Z,6.30
2018-09-08T11:04:20.379Z,4.70
2018-09-08T11:06:49.076Z,4.60
2018-09-08T11:09:18.598Z,5.47
2018-09-08T11:11:47.376Z,5.30
2018-09-08T11:14:16.062Z,7.20
2018-09-08T11:16:44.939Z,7.60
2018-09-08T11:19:14.914Z,11.03
2018-09-08T11:21:43.651Z,8.27
2018-09-08T11:24:13.148Z,7.37
2018-09-08T11:26:41.724Z,7.27
2018-09-08T11:29:10.739Z,10.17
2018-09-08T11:31:39.504Z,8.93
2018-09-08T11:34:08.215Z,6.83
2018-09-08T11:36:36.882Z,4.97
2018-09-08T11:39:06.548Z,5.70
2018-09-08T11:41:35.472Z,5.40
2018-09-08T11:44:04.173Z,3.93
2018-09-08T11:46:33.396Z,5.07
2018-09-08T11:49:03.399Z,7.40
2018-09-08T11:51:32.299Z,4.53
2018-09-08T11:54:01.359Z,8.70
2018-09-08T11:56:30.083Z,4.10
2018-09-08T11:58:58.840Z,3.27
2018-09-08T12:01:27.372Z,4.77
2018-09-08T12:03:56.292Z,4.47
2018-09-08T12:06:24.894Z,3.80
2018-09-08T12:08:54.498Z,4.00
2018-09-08T12:11:25.948Z,4.90
2018-09-08T12:13:55.996Z,3.70
2018-09-08T12:16:24.627Z,5.10
2018-09-08T12:18:53.300Z,4.80
2018-09-08T12:21:22.103Z,4.40
2018-09-08T12:23:51.304Z,3.47
2018-09-08T12:26:19.988Z,5.07
2018-09-08T12:28:48.589Z,6.53
2018-09-08T12:31:17.348Z,5.80
2018-09-08T12:33:46.033Z,3.80
2018-09-08T12:36:14.753Z,3.53
2018-09-08T12:38:43.472Z,4.73
2018-09-08T12:41:13.537Z,3.83
2018-09-08T12:43:42.388Z,3.90
2018-09-08T12:46:11.196Z,4.33
2018-09-08T12:48:40.038Z,3.60
2018-09-08T12:51:09.271Z,3.87
2018-09-08T12:53:37.952Z,7.63
2018-09-08T12:56:07.109Z,4.93
2018-09-08T12:58:35.748Z,6.23
2018-09-08T13:01:04.425Z,4.20
2018-09-08T13:03:33.273Z,5.10
2018-09-08T13:06:02.220Z,6.43
2018-09-08T13:08:31.084Z,7.90
2018-09-08T13:10:59.619Z,8.47
2018-09-08T13:13:28.249Z,7.80
2018-09-08T13:15:57.164Z,6.97
2018-09-08T13:18:26.440Z,5.23
2018-09-08T13:20:55.144Z,5.53
2018-09-08T13:23:23.727Z,6.73
2018-09-08T13:25:52.896Z,9.73
2018-09-08T13:28:22.257Z,5.87
2018-09-08T13:30:50.898Z,6.03
2018-09-08T13:33:19.537Z,6.37
2018-09-08T13:35:48.297Z,5.17
2018-09-08T13:38:16.964Z,5.03
2018-09-08T13:40:46.901Z,5.60
2018-09-08T13:43:15.552Z,5.07
2018-09-08T13:45:44.991Z,5.57
2018-09-08T13:48:13.723Z,4.40
2018-09-08T13:50:42.422Z,3.93
2018-09-08T13:53:13.888Z,3.93
2018-09-08T13:55:43.179Z,4.63
2018-09-08T13:58:11.763Z,5.13
2018-09-08T14:00:41.057Z,4.30
2018-09-08T14:03:10.424Z,5.23
2018-09-08T14:05:39.508Z,5.67
2018-09-08T14:08:11.639Z,5.03
2018-09-08T14:10:41.481Z,4.50
2018-09-08T14:13:10.192Z,4.23
2018-09-08T14:15:38.907Z,4.77
2018-09-08T14:18:07.604Z,4.97
2018-09-08T14:20:36.141Z,4.30
2018-09-08T14:23:04.945Z,3.57
2018-09-08T14:25:34.168Z,5.07
2018-09-08T14:28:03.564Z,4.90
2018-09-08T14:30:32.921Z,4.70
2018-09-08T14:33:01.748Z,4.80
2018-09-08T14:35:30.446Z,4.07
2018-09-08T14:37:59.154Z,5.03
2018-09-08T14:40:27.909Z,4.37
2018-09-08T14:42:57.329Z,3.70
2018-09-08T14:45:26.408Z,4.70
2018-09-08T14:47:55.524Z,5.97
2018-09-08T14:50:25.000Z,4.40
2018-09-08T14:52:53.721Z,3.67
2018-09-08T14:55:22.900Z,4.40
2018-09-08T14:57:51.542Z,3.87
2018-09-08T15:00:20.547Z,4.00
2018-09-08T15:02:50.197Z,4.60
2018-09-08T15:05:18.830Z,3.67
2018-09-08T15:07:50.412Z,3.53
2018-09-08T15:10:19.316Z,3.83
2018-09-08T15:12:47.951Z,3.90
2018-09-08T15:15:16.808Z,5.30
2018-09-08T15:17:45.771Z,4.43
2018-09-08T15:20:14.421Z,4.53
2018-09-08T15:22:43.303Z,3.87
2018-09-08T15:25:13.013Z,5.10
2018-09-08T15:27:42.499Z,5.13
2018-09-08T15:30:11.040Z,3.40
2018-09-08T15:32:39.880Z,3.67
2018-09-08T15:35:08.746Z,3.40
2018-09-08T15:37:37.336Z,18.63
2018-09-08T15:40:05.953Z,10.70
2018-09-08T15:42:35.427Z,10.03
2018-09-08T15:45:04.732Z,3.63
2018-09-08T15:47:33.429Z,18.63
2018-09-08T15:50:03.400Z,5.73
2018-09-08T15:52:32.221Z,5.60
2018-09-08T15:55:01.080Z,4.80
2018-09-08T15:57:29.924Z,5.10
2018-09-08T15:59:59.624Z,3.80
2018-09-08T16:02:28.609Z,3.43
2018-09-08T16:04:57.264Z,5.13
2018-09-08T16:07:26.327Z,3.37
2018-09-08T16:09:55.076Z,3.50
2018-09-08T16:12:25.006Z,4.00
2018-09-08T16:14:53.959Z,4.17
2018-09-08T16:23:17.910Z,4.00
2018-09-08T16:25:46.470Z,3.50
2018-09-08T16:28:15.487Z,4.00
2018-09-08T16:30:44.168Z,4.03
2018-09-08T16:33:12.895Z,15.93
2018-09-08T16:35:42.192Z,10.43
2018-09-08T16:38:10.897Z,6.43
2018-09-08T16:40:39.584Z,8.43
2018-09-08T16:43:08.208Z,5.03
2018-09-08T16:45:36.834Z,5.73
2018-09-08T16:48:05.603Z,9.70
2018-09-08T16:50:34.384Z,4.37
2018-09-08T16:53:03.599Z,3.97
2018-09-08T16:55:33.306Z,5.53
2018-09-08T16:58:02.688Z,5.97
2018-09-08T17:00:32.086Z,5.87
2018-09-08T17:03:00.595Z,4.10
2018-09-08T17:05:29.267Z,6.73
2018-09-08T17:07:58.541Z,7.90
2018-09-08T17:10:27.610Z,5.00
2018-09-08T17:12:56.317Z,5.17
2018-09-08T17:15:25.225Z,6.23
2018-09-08T17:17:54.496Z,4.00
2018-09-08T17:20:23.051Z,5.77
2018-09-08T17:22:51.737Z,6.60
2018-09-08T17:25:20.395Z,3.33
2018-09-08T17:27:48.929Z,7.57
2018-09-08T17:30:17.935Z,10.50
2018-09-08T17:32:46.583Z,3.43
2018-09-08T17:35:15.301Z,6.23
2018-09-08T17:37:43.816Z,7.47
2018-09-08T17:40:12.803Z,6.47
2018-09-08T17:42:41.581Z,6.53
2018-09-08T17:45:11.216Z,5.10
2018-09-08T17:47:40.540Z,5.87
2018-09-08T17:50:09.256Z,5.70
2018-09-08T17:52:38.012Z,6.90
2018-09-08T17:55:06.859Z,6.33
2018-09-08T17:57:35.803Z,7.37
2018-09-08T18:00:04.601Z,4.83
2018-09-08T18:02:33.298Z,5.37
2018-09-08T18:05:01.989Z,4.90
2018-09-08T18:07:30.657Z,6.10
2018-09-08T18:09:59.551Z,3.67
2018-09-08T18:12:28.204Z,5.10
2018-09-08T18:14:57.448Z,5.10
2018-09-08T18:17:26.210Z,4.53
2018-09-08T18:19:55.501Z,5.27
2018-09-08T18:22:24.293Z,8.43
2018-09-08T18:24:53.916Z,6.80
2018-09-08T18:27:22.727Z,9.40
2018-09-08T18:29:51.248Z,5.40
2018-09-08T18:32:19.968Z,8.50
2018-09-08T18:34:48.892Z,8.43
2018-09-08T18:37:17.416Z,6.50
2018-09-08T18:39:47.127Z,5.07
2018-09-08T18:42:15.899Z,4.40
2018-09-08T18:44:44.404Z,5.03
2018-09-08T18:47:13.905Z,4.20
2018-09-08T18:49:43.041Z,4.60
2018-09-08T18:52:12.487Z,4.50
2018-09-08T18:54:41.919Z,5.33
2018-09-08T18:57:11.936Z,6.87
2018-09-08T18:59:40.579Z,5.60
2018-09-08T19:02:10.187Z,6.53
2018-09-08T19:04:39.953Z,5.57
2018-09-08T19:07:08.808Z,4.93
2018-09-08T19:09:37.597Z,6.77
2018-09-08T19:12:06.279Z,4.07
2018-09-08T19:14:40.176Z,4.40
2018-09-08T19:17:09.257Z,5.57
2018-09-08T19:19:38.016Z,14.63
2018-09-08T19:22:07.598Z,5.33
2018-09-08T19:24:41.407Z,10.37
2018-09-08T19:27:10.300Z,8.37
2018-09-08T19:29:44.136Z,6.00
2018-09-08T19:32:12.922Z,8.63
2018-09-08T19:34:42.437Z,4.53
2018-09-08T19:37:11.516Z,5.27
2018-09-08T19:39:40.235Z,8.40
2018-09-08T19:42:09.364Z,7.23
2018-09-08T19:44:38.081Z,5.70
2018-09-08T19:47:12.092Z,4.43
2018-09-08T19:49:41.700Z,5.57
2018-09-08T19:52:14.579Z,5.43
2018-09-08T19:54:43.226Z,5.00
2018-09-08T19:57:18.318Z,4.43
2018-09-08T19:59:46.900Z,7.97
2018-09-08T20:02:16.236Z,7.53
2018-09-08T20:04:45.072Z,7.00
2018-09-08T20:07:15.070Z,7.10
2018-09-08T20:09:43.955Z,11.53
2018-09-08T20:12:12.927Z,4.00
2018-09-08T20:14:41.879Z,5.17
2018-09-08T20:17:10.799Z,5.43
2018-09-08T20:19:39.782Z,4.27
2018-09-08T20:22:09.895Z,7.73
2018-09-08T20:24:39.152Z,5.30
2018-09-08T20:27:07.790Z,6.67
2018-09-08T20:29:36.774Z,5.83
2018-09-08T20:32:05.332Z,6.80
2018-09-08T20:34:34.653Z,9.60
2018-09-08T20:37:03.240Z,7.03
2018-09-08T20:39:32.907Z,5.87
2018-09-08T20:42:02.388Z,4.30
2018-09-08T20:44:31.765Z,4.30
2018-09-08T20:47:00.709Z,4.37
2018-09-08T20:49:29.728Z,5.40
2018-09-08T20:51:58.637Z,6.60
2018-09-08T20:54:27.407Z,6.17
2018-09-08T20:56:56.053Z,5.23
2018-09-08T20:59:24.910Z,4.03
2018-09-08T21:01:54.066Z,4.67
2018-09-08T21:04:22.811Z,4.63
2018-09-08T21:06:51.409Z,9.20
2018-09-08T21:09:20.516Z,5.60
2018-09-08T21:11:49.984Z,4.67
2018-09-08T21:14:18.524Z,4.63
2018-09-08T21:16:47.075Z,6.37
2018-09-08T21:19:16.328Z,4.80
2018-09-08T21:21:45.218Z,8.63
2018-09-08T21:24:13.892Z,6.43
2018-09-08T21:26:42.525Z,6.20
2018-09-08T21:29:11.439Z,8.50
2018-09-08T21:31:40.120Z,6.17
2018-09-08T21:34:09.925Z,5.03
2018-09-08T21:36:39.565Z,4.47
2018-09-08T21:39:09.175Z,4.90
2018-09-08T21:41:37.999Z,5.00
2018-09-08T21:44:07.020Z,5.60
2018-09-08T21:46:35.916Z,5.43
2018-09-08T21:49:04.804Z,4.97
2018-09-08T21:51:34.112Z,4.30
2018-09-08T21:54:02.842Z,5.07
2018-09-08T21:56:31.456Z,4.10
2018-09-08T21:59:00.048Z,5.10
2018-09-08T22:01:29.287Z,6.00
2018-09-08T22:03:58.340Z,3.83
2018-09-08T22:06:27.351Z,4.33
2018-09-08T22:08:56.311Z,5.87
2018-09-08T22:11:24.983Z,4.90
2018-09-08T22:13:53.778Z,6.50
2018-09-08T22:16:22.349Z,4.97
2018-09-08T22:21:53.524Z,5.43
2018-09-08T22:24:22.167Z,18.27
2018-09-08T22:26:51.032Z,6.50
2018-09-08T22:29:19.855Z,7.83
2018-09-08T22:31:48.951Z,7.20
2018-09-08T22:34:18.160Z,6.50
2018-09-08T22:36:46.971Z,4.97
2018-09-08T22:39:15.985Z,6.40
2018-09-08T22:41:44.966Z,6.13
2018-09-08T22:44:14.290Z,3.70
2018-09-08T22:46:42.991Z,4.40
2018-09-08T22:49:12.231Z,6.53
2018-09-08T22:51:41.420Z,5.37
2018-09-08T22:54:09.945Z,5.97
2018-09-08T22:56:38.761Z,6.70
2018-09-08T22:59:08.833Z,3.23
2018-09-08T23:01:37.528Z,4.77
2018-09-08T23:04:06.447Z,4.40
2018-09-08T23:06:35.360Z,5.03
2018-09-08T23:09:04.831Z,4.37
2018-09-08T23:11:34.139Z,4.73
2018-09-08T23:14:03.035Z,6.30
2018-09-08T23:16:31.694Z,5.07
2018-09-08T23:19:00.379Z,5.03
2018-09-08T23:21:29.245Z,4.80
2018-09-08T23:23:57.903Z,4.20
2018-09-08T23:26:26.411Z,4.50
2018-09-08T23:28:55.348Z,4.80
2018-09-08T23:31:24.016Z,5.60
2018-09-08T23:33:53.212Z,4.97
2018-09-08T23:36:21.937Z,4.50
2018-09-08T23:38:50.705Z,4.13
2018-09-08T23:41:20.721Z,7.70
2018-09-08T23:43:49.722Z,5.33
2018-09-08T23:46:18.340Z,3.73
2018-09-08T23:48:47.062Z,4.40
2018-09-08T23:51:15.925Z,4.10
2018-09-08T23:53:45.118Z,4.03
2018-09-08T23:56:15.105Z,6.30
2018-09-08T23:58:44.063Z,6.33
